Terminal Aerodrome Forecast
Issued by NWS

Home | Current Version | Previous Version | Text Only | Print | Product List | Glossary On
Versions: 1 2 3 4 5 6 7 8 9 10 11 12 13 14 15 16 17 18 19
995
FTUS41 KPBZ 240800 AAA
TAFMGW
TAF AMD
KMGW 240800Z 2408/2506 01003KT 4SM BR SCT250
     FM241400 20003KT P6SM SCT250
     FM241500 22004KT P6SM SCT040=

USA.gov is the U.S. government's official web portal to all federal, state and local government web resources and services.